sensor_id;sensor_type;location;lat;lon;timestamp;temperature;humidity
26262;DHT22;13988;52.446;13.280;2022-08-03T00:01:43;18.70;99.90
26262;DHT22;13988;52.446;13.280;2022-08-03T00:04:10;18.70;99.90
26262;DHT22;13988;52.446;13.280;2022-08-03T00:06:36;18.80;99.90
26262;DHT22;13988;52.446;13.280;2022-08-03T00:09:06;18.80;99.90
26262;DHT22;13988;52.446;13.280;2022-08-03T00:11:32;18.90;99.90
26262;DHT22;13988;52.446;13.280;2022-08-03T00:13:57;18.80;99.90
26262;DHT22;13988;52.446;13.280;2022-08-03T00:16:23;18.80;99.90
26262;DHT22;13988;52.446;13.280;2022-08-03T00:18:51;18.70;99.90
26262;DHT22;13988;52.446;13.280;2022-08-03T00:21:16;18.70;99.90
26262;DHT22;13988;52.446;13.280;2022-08-03T00:23:42;18.70;99.90
26262;DHT22;13988;52.446;13.280;2022-08-03T00:26:08;18.90;99.90
26262;DHT22;13988;52.446;13.280;2022-08-03T00:28:34;18.90;99.90
26262;DHT22;13988;52.446;13.280;2022-08-03T00:30:59;18.80;99.90
26262;DHT22;13988;52.446;13.280;2022-08-03T00:33:31;18.80;99.90
26262;DHT22;13988;52.446;13.280;2022-08-03T00:35:57;18.70;99.90
26262;DHT22;13988;52.446;13.280;2022-08-03T00:38:32;18.60;99.90
26262;DHT22;13988;52.446;13.280;2022-08-03T00:40:58;18.70;99.90
26262;DHT22;13988;52.446;13.280;2022-08-03T00:43:26;18.70;99.90
26262;DHT22;13988;52.446;13.280;2022-08-03T00:45:52;18.70;99.90
26262;DHT22;13988;52.446;13.280;2022-08-03T00:48:19;18.70;99.90
26262;DHT22;13988;52.446;13.280;2022-08-03T00:50:45;18.60;99.90
26262;DHT22;13988;52.446;13.280;2022-08-03T00:53:13;18.70;99.90
26262;DHT22;13988;52.446;13.280;2022-08-03T00:55:39;18.70;99.90
26262;DHT22;13988;52.446;13.280;2022-08-03T00:58:06;18.70;99.90
26262;DHT22;13988;52.446;13.280;2022-08-03T01:00:34;18.50;99.90
26262;DHT22;13988;52.446;13.280;2022-08-03T01:03:07;18.50;99.90
26262;DHT22;13988;52.446;13.280;2022-08-03T01:16:27;18.70;99.90
26262;DHT22;13988;52.446;13.280;2022-08-03T01:21:50;18.60;99.90
26262;DHT22;13988;52.446;13.280;2022-08-03T01:24:36;18.70;99.90
26262;DHT22;13988;52.446;13.280;2022-08-03T01:27:16;18.60;99.90
26262;DHT22;13988;52.446;13.280;2022-08-03T01:30:04;18.60;99.90
26262;DHT22;13988;52.446;13.280;2022-08-03T01:32:54;18.70;99.90
26262;DHT22;13988;52.446;13.280;2022-08-03T01:35:36;18.80;99.90
26262;DHT22;13988;52.446;13.280;2022-08-03T01:38:10;18.80;99.90
26262;DHT22;13988;52.446;13.280;2022-08-03T01:40:41;18.80;99.90
26262;DHT22;13988;52.446;13.280;2022-08-03T01:43:13;18.70;99.90
26262;DHT22;13988;52.446;13.280;2022-08-03T01:45:40;18.90;99.90
26262;DHT22;13988;52.446;13.280;2022-08-03T01:48:07;18.90;99.90
26262;DHT22;13988;52.446;13.280;2022-08-03T01:50:34;18.90;99.90
26262;DHT22;13988;52.446;13.280;2022-08-03T01:53:01;18.90;99.90
26262;DHT22;13988;52.446;13.280;2022-08-03T01:55:28;18.80;99.90
26262;DHT22;13988;52.446;13.280;2022-08-03T01:57:56;18.80;99.90
26262;DHT22;13988;52.446;13.280;2022-08-03T02:00:24;18.90;99.90
26262;DHT22;13988;52.446;13.280;2022-08-03T02:02:53;18.90;99.90
26262;DHT22;13988;52.446;13.280;2022-08-03T02:05:20;19.00;99.90
26262;DHT22;13988;52.446;13.280;2022-08-03T02:07:47;19.00;99.90
26262;DHT22;13988;52.446;13.280;2022-08-03T02:10:14;19.00;99.90
26262;DHT22;13988;52.446;13.280;2022-08-03T02:12:43;19.00;99.90
26262;DHT22;13988;52.446;13.280;2022-08-03T02:15:11;19.00;99.90
26262;DHT22;13988;52.446;13.280;2022-08-03T02:17:41;19.00;99.90
26262;DHT22;13988;52.446;13.280;2022-08-03T02:20:10;19.00;99.90
26262;DHT22;13988;52.446;13.280;2022-08-03T02:22:40;18.90;99.90
26262;DHT22;13988;52.446;13.280;2022-08-03T02:25:08;19.00;99.90
26262;DHT22;13988;52.446;13.280;2022-08-03T02:27:57;19.00;99.90
26262;DHT22;13988;52.446;13.280;2022-08-03T02:30:30;18.90;99.90
26262;DHT22;13988;52.446;13.280;2022-08-03T02:32:58;18.80;99.90
26262;DHT22;13988;52.446;13.280;2022-08-03T02:35:28;18.80;99.90
26262;DHT22;13988;52.446;13.280;2022-08-03T02:37:59;18.80;99.90
26262;DHT22;13988;52.446;13.280;2022-08-03T02:40:27;18.90;99.90
26262;DHT22;13988;52.446;13.280;2022-08-03T02:43:01;18.90;99.90
26262;DHT22;13988;52.446;13.280;2022-08-03T02:45:28;18.90;99.90
26262;DHT22;13988;52.446;13.280;2022-08-03T02:47:57;18.80;99.90
26262;DHT22;13988;52.446;13.280;2022-08-03T02:50:25;18.70;99.90
26262;DHT22;13988;52.446;13.280;2022-08-03T02:53:02;18.70;99.90
26262;DHT22;13988;52.446;13.280;2022-08-03T02:55:35;18.70;99.90
26262;DHT22;13988;52.446;13.280;2022-08-03T02:58:02;18.70;99.90
26262;DHT22;13988;52.446;13.280;2022-08-03T03:00:30;18.70;99.90
26262;DHT22;13988;52.446;13.280;2022-08-03T03:02:58;18.60;99.90
26262;DHT22;13988;52.446;13.280;2022-08-03T03:05:24;18.50;99.90
26262;DHT22;13988;52.446;13.280;2022-08-03T03:07:50;18.40;99.90
26262;DHT22;13988;52.446;13.280;2022-08-03T03:10:17;18.50;99.90
26262;DHT22;13988;52.446;13.280;2022-08-03T03:12:44;18.40;99.90
26262;DHT22;13988;52.446;13.280;2022-08-03T03:15:11;18.40;99.90
26262;DHT22;13988;52.446;13.280;2022-08-03T03:17:38;18.40;99.90
26262;DHT22;13988;52.446;13.280;2022-08-03T03:20:05;18.40;99.90
26262;DHT22;13988;52.446;13.280;2022-08-03T03:22:32;18.50;99.90
26262;DHT22;13988;52.446;13.280;2022-08-03T03:24:59;18.30;99.90
26262;DHT22;13988;52.446;13.280;2022-08-03T03:27:25;18.40;99.90
26262;DHT22;13988;52.446;13.280;2022-08-03T03:29:52;18.50;99.90
26262;DHT22;13988;52.446;13.280;2022-08-03T03:32:17;18.50;99.90
26262;DHT22;13988;52.446;13.280;2022-08-03T03:34:43;18.50;99.90
26262;DHT22;13988;52.446;13.280;2022-08-03T03:37:09;18.50;99.90
26262;DHT22;13988;52.446;13.280;2022-08-03T03:39:38;18.50;99.90
26262;DHT22;13988;52.446;13.280;2022-08-03T03:42:04;18.30;99.90
26262;DHT22;13988;52.446;13.280;2022-08-03T03:44:30;18.40;99.90
26262;DHT22;13988;52.446;13.280;2022-08-03T03:46:59;18.50;99.90
26262;DHT22;13988;52.446;13.280;2022-08-03T03:49:25;18.50;99.90
26262;DHT22;13988;52.446;13.280;2022-08-03T03:51:52;18.50;99.90
26262;DHT22;13988;52.446;13.280;2022-08-03T03:54:19;18.40;99.90
26262;DHT22;13988;52.446;13.280;2022-08-03T03:56:46;18.40;99.90
26262;DHT22;13988;52.446;13.280;2022-08-03T03:59:13;18.50;99.90
26262;DHT22;13988;52.446;13.280;2022-08-03T04:01:39;18.40;99.90
26262;DHT22;13988;52.446;13.280;2022-08-03T04:04:05;18.40;99.90
26262;DHT22;13988;52.446;13.280;2022-08-03T04:06:49;18.40;99.90
26262;DHT22;13988;52.446;13.280;2022-08-03T04:09:38;18.40;99.90
26262;DHT22;13988;52.446;13.280;2022-08-03T04:12:25;18.50;99.90
26262;DHT22;13988;52.446;13.280;2022-08-03T04:14:55;18.60;99.90
26262;DHT22;13988;52.446;13.280;2022-08-03T04:17:23;18.70;99.90
26262;DHT22;13988;52.446;13.280;2022-08-03T04:19:53;18.80;99.90
26262;DHT22;13988;52.446;13.280;2022-08-03T04:22:23;18.80;99.90
26262;DHT22;13988;52.446;13.280;2022-08-03T04:25:10;18.70;99.90
26262;DHT22;13988;52.446;13.280;2022-08-03T04:27:40;18.70;99.90
26262;DHT22;13988;52.446;13.280;2022-08-03T04:30:08;18.70;99.90
26262;DHT22;13988;52.446;13.280;2022-08-03T04:32:36;18.70;99.90
26262;DHT22;13988;52.446;13.280;2022-08-03T04:35:03;18.60;99.90
26262;DHT22;13988;52.446;13.280;2022-08-03T04:37:45;18.40;99.90
26262;DHT22;13988;52.446;13.280;2022-08-03T04:40:32;18.50;99.90
26262;DHT22;13988;52.446;13.280;2022-08-03T04:42:59;18.40;99.90
26262;DHT22;13988;52.446;13.280;2022-08-03T04:45:26;18.40;99.90
26262;DHT22;13988;52.446;13.280;2022-08-03T04:47:53;18.40;99.90
26262;DHT22;13988;52.446;13.280;2022-08-03T04:50:28;18.50;99.90
26262;DHT22;13988;52.446;13.280;2022-08-03T04:52:55;18.50;99.90
26262;DHT22;13988;52.446;13.280;2022-08-03T04:55:28;18.60;99.90
26262;DHT22;13988;52.446;13.280;2022-08-03T04:57:56;18.70;99.90
26262;DHT22;13988;52.446;13.280;2022-08-03T05:00:22;18.60;99.90
26262;DHT22;13988;52.446;13.280;2022-08-03T05:02:48;18.60;99.90
26262;DHT22;13988;52.446;13.280;2022-08-03T05:05:14;18.70;99.90
26262;DHT22;13988;52.446;13.280;2022-08-03T05:07:41;18.80;99.90
26262;DHT22;13988;52.446;13.280;2022-08-03T05:10:09;18.80;99.90
26262;DHT22;13988;52.446;13.280;2022-08-03T05:12:35;18.90;99.90
26262;DHT22;13988;52.446;13.280;2022-08-03T05:15:01;19.00;99.90
26262;DHT22;13988;52.446;13.280;2022-08-03T05:17:27;19.00;99.90
26262;DHT22;13988;52.446;13.280;2022-08-03T05:19:53;19.10;99.90
26262;DHT22;13988;52.446;13.280;2022-08-03T05:22:20;19.30;99.90
26262;DHT22;13988;52.446;13.280;2022-08-03T05:24:51;19.30;99.90
26262;DHT22;13988;52.446;13.280;2022-08-03T05:27:17;19.50;99.90
26262;DHT22;13988;52.446;13.280;2022-08-03T05:29:58;19.70;99.90
26262;DHT22;13988;52.446;13.280;2022-08-03T05:32:33;19.80;99.90
26262;DHT22;13988;52.446;13.280;2022-08-03T05:34:59;19.90;99.90
26262;DHT22;13988;52.446;13.280;2022-08-03T05:37:25;20.10;99.90
26262;DHT22;13988;52.446;13.280;2022-08-03T05:39:51;20.20;99.90
26262;DHT22;13988;52.446;13.280;2022-08-03T05:42:17;20.30;99.90
26262;DHT22;13988;52.446;13.280;2022-08-03T05:44:42;20.40;99.90
26262;DHT22;13988;52.446;13.280;2022-08-03T05:47:08;20.50;99.90
26262;DHT22;13988;52.446;13.280;2022-08-03T05:49:34;20.80;99.90
26262;DHT22;13988;52.446;13.280;2022-08-03T05:52:00;20.80;99.90
26262;DHT22;13988;52.446;13.280;2022-08-03T05:54:26;21.00;99.90
26262;DHT22;13988;52.446;13.280;2022-08-03T05:56:52;21.20;99.90
26262;DHT22;13988;52.446;13.280;2022-08-03T05:59:17;21.30;99.90
26262;DHT22;13988;52.446;13.280;2022-08-03T06:02:05;21.50;99.90
26262;DHT22;13988;52.446;13.280;2022-08-03T06:04:30;21.60;99.90
26262;DHT22;13988;52.446;13.280;2022-08-03T06:06:56;21.80;99.90
26262;DHT22;13988;52.446;13.280;2022-08-03T06:09:22;22.00;99.90
26262;DHT22;13988;52.446;13.280;2022-08-03T06:12:06;22.30;99.90
26262;DHT22;13988;52.446;13.280;2022-08-03T06:14:32;23.00;99.90
26262;DHT22;13988;52.446;13.280;2022-08-03T06:17:00;24.90;99.90
26262;DHT22;13988;52.446;13.280;2022-08-03T06:19:25;26.60;91.30
26262;DHT22;13988;52.446;13.280;2022-08-03T06:21:51;27.40;86.30
26262;DHT22;13988;52.446;13.280;2022-08-03T06:24:20;28.00;77.90
26262;DHT22;13988;52.446;13.280;2022-08-03T06:26:46;27.80;75.10
26262;DHT22;13988;52.446;13.280;2022-08-03T06:29:12;28.80;72.50
26262;DHT22;13988;52.446;13.280;2022-08-03T06:31:37;29.90;68.40
26262;DHT22;13988;52.446;13.280;2022-08-03T06:34:04;30.70;65.10
26262;DHT22;13988;52.446;13.280;2022-08-03T06:36:30;31.30;63.10
26262;DHT22;13988;52.446;13.280;2022-08-03T06:38:57;32.30;59.10
26262;DHT22;13988;52.446;13.280;2022-08-03T06:41:24;31.00;57.70
26262;DHT22;13988;52.446;13.280;2022-08-03T06:43:49;29.90;58.50
26262;DHT22;13988;52.446;13.280;2022-08-03T06:46:23;29.50;59.30
26262;DHT22;13988;52.446;13.280;2022-08-03T06:48:48;29.10;59.00
26262;DHT22;13988;52.446;13.280;2022-08-03T06:51:14;30.10;58.40
26262;DHT22;13988;52.446;13.280;2022-08-03T06:53:40;30.30;57.70
26262;DHT22;13988;52.446;13.280;2022-08-03T06:56:06;30.60;57.70
26262;DHT22;13988;52.446;13.280;2022-08-03T06:58:32;31.30;56.20
26262;DHT22;13988;52.446;13.280;2022-08-03T07:00:58;30.80;55.00
26262;DHT22;13988;52.446;13.280;2022-08-03T07:03:37;30.10;56.10
26262;DHT22;13988;52.446;13.280;2022-08-03T07:06:13;31.00;55.30
26262;DHT22;13988;52.446;13.280;2022-08-03T07:08:38;32.40;55.30
26262;DHT22;13988;52.446;13.280;2022-08-03T07:11:04;33.60;51.80
26262;DHT22;13988;52.446;13.280;2022-08-03T07:13:30;34.30;49.00
26262;DHT22;13988;52.446;13.280;2022-08-03T07:15:55;34.00;49.60
26262;DHT22;13988;52.446;13.280;2022-08-03T07:18:21;34.60;49.10
26262;DHT22;13988;52.446;13.280;2022-08-03T07:20:47;33.70;48.10
26262;DHT22;13988;52.446;13.280;2022-08-03T07:23:13;34.10;49.10
26262;DHT22;13988;52.446;13.280;2022-08-03T07:25:38;33.90;49.00
26262;DHT22;13988;52.446;13.280;2022-08-03T07:28:04;35.20;48.10
26262;DHT22;13988;52.446;13.280;2022-08-03T07:30:30;34.90;48.00
26262;DHT22;13988;52.446;13.280;2022-08-03T07:32:55;35.70;46.30
26262;DHT22;13988;52.446;13.280;2022-08-03T07:35:21;36.50;44.90
26262;DHT22;13988;52.446;13.280;2022-08-03T07:37:47;36.20;45.60
26262;DHT22;13988;52.446;13.280;2022-08-03T07:40:13;34.60;45.00
26262;DHT22;13988;52.446;13.280;2022-08-03T07:42:38;34.80;46.80
26262;DHT22;13988;52.446;13.280;2022-08-03T07:45:04;35.00;45.60
26262;DHT22;13988;52.446;13.280;2022-08-03T07:47:30;34.90;45.90
26262;DHT22;13988;52.446;13.280;2022-08-03T07:49:56;33.40;47.00
26262;DHT22;13988;52.446;13.280;2022-08-03T07:52:22;34.90;46.80
26262;DHT22;13988;52.446;13.280;2022-08-03T07:55:07;34.20;46.90
26262;DHT22;13988;52.446;13.280;2022-08-03T07:57:34;33.00;48.30
26262;DHT22;13988;52.446;13.280;2022-08-03T07:59:59;32.40;48.80
26262;DHT22;13988;52.446;13.280;2022-08-03T08:02:26;31.40;49.90
26262;DHT22;13988;52.446;13.280;2022-08-03T08:04:51;30.20;50.80
26262;DHT22;13988;52.446;13.280;2022-08-03T08:07:17;29.20;52.30
26262;DHT22;13988;52.446;13.280;2022-08-03T08:09:43;28.90;54.10
26262;DHT22;13988;52.446;13.280;2022-08-03T08:12:19;29.10;54.80
26262;DHT22;13988;52.446;13.280;2022-08-03T08:14:45;29.20;54.30
26262;DHT22;13988;52.446;13.280;2022-08-03T08:17:14;29.00;54.10
26262;DHT22;13988;52.446;13.280;2022-08-03T08:19:39;28.20;54.20
26262;DHT22;13988;52.446;13.280;2022-08-03T08:22:05;28.10;55.50
26262;DHT22;13988;52.446;13.280;2022-08-03T08:24:33;28.50;54.60
26262;DHT22;13988;52.446;13.280;2022-08-03T08:26:59;28.40;55.20
26262;DHT22;13988;52.446;13.280;2022-08-03T08:29:26;28.50;55.60
26262;DHT22;13988;52.446;13.280;2022-08-03T08:31:51;28.10;54.50
26262;DHT22;13988;52.446;13.280;2022-08-03T08:34:17;28.10;55.20
26262;DHT22;13988;52.446;13.280;2022-08-03T08:36:43;28.10;54.80
26262;DHT22;13988;52.446;13.280;2022-08-03T08:39:08;28.90;53.80
26262;DHT22;13988;52.446;13.280;2022-08-03T08:41:34;29.10;55.30
26262;DHT22;13988;52.446;13.280;2022-08-03T08:44:00;28.70;53.90
26262;DHT22;13988;52.446;13.280;2022-08-03T08:46:28;28.30;53.30
26262;DHT22;13988;52.446;13.280;2022-08-03T08:48:56;28.20;53.30
26262;DHT22;13988;52.446;13.280;2022-08-03T08:51:27;28.30;53.30
26262;DHT22;13988;52.446;13.280;2022-08-03T08:53:55;28.10;53.30
26262;DHT22;13988;52.446;13.280;2022-08-03T08:56:25;28.30;52.30
26262;DHT22;13988;52.446;13.280;2022-08-03T08:58:56;28.50;53.30
26262;DHT22;13988;52.446;13.280;2022-08-03T09:01:26;28.50;53.40
26262;DHT22;13988;52.446;13.280;2022-08-03T09:03:52;28.30;51.80
26262;DHT22;13988;52.446;13.280;2022-08-03T09:07:12;28.40;53.50
26262;DHT22;13988;52.446;13.280;2022-08-03T09:09:16;28.30;52.60
26262;DHT22;13988;52.446;13.280;2022-08-03T09:11:42;28.60;52.30
26262;DHT22;13988;52.446;13.280;2022-08-03T09:14:08;28.80;54.00
26262;DHT22;13988;52.446;13.280;2022-08-03T09:16:34;28.90;54.20
26262;DHT22;13988;52.446;13.280;2022-08-03T09:19:11;29.00;53.00
26262;DHT22;13988;52.446;13.280;2022-08-03T09:21:38;28.60;52.70
26262;DHT22;13988;52.446;13.280;2022-08-03T09:24:05;29.00;50.50
26262;DHT22;13988;52.446;13.280;2022-08-03T09:26:33;29.00;52.30
26262;DHT22;13988;52.446;13.280;2022-08-03T09:29:18;28.70;53.20
26262;DHT22;13988;52.446;13.280;2022-08-03T09:31:45;29.30;52.20
26262;DHT22;13988;52.446;13.280;2022-08-03T09:34:14;29.40;52.70
26262;DHT22;13988;52.446;13.280;2022-08-03T09:36:45;29.00;54.80
26262;DHT22;13988;52.446;13.280;2022-08-03T09:39:18;29.20;53.70
26262;DHT22;13988;52.446;13.280;2022-08-03T09:41:47;29.20;53.20
26262;DHT22;13988;52.446;13.280;2022-08-03T09:44:14;28.90;52.90
26262;DHT22;13988;52.446;13.280;2022-08-03T09:46:53;28.90;54.10
26262;DHT22;13988;52.446;13.280;2022-08-03T09:49:19;29.60;52.00
26262;DHT22;13988;52.446;13.280;2022-08-03T09:51:51;29.30;52.10
26262;DHT22;13988;52.446;13.280;2022-08-03T09:54:28;29.40;52.40
26262;DHT22;13988;52.446;13.280;2022-08-03T09:56:55;29.30;52.30
26262;DHT22;13988;52.446;13.280;2022-08-03T09:59:26;29.20;52.40
26262;DHT22;13988;52.446;13.280;2022-08-03T10:01:57;29.30;52.80
26262;DHT22;13988;52.446;13.280;2022-08-03T10:07:09;29.20;52.50
26262;DHT22;13988;52.446;13.280;2022-08-03T10:09:36;29.50;52.00
26262;DHT22;13988;52.446;13.280;2022-08-03T10:12:12;29.40;52.70
26262;DHT22;13988;52.446;13.280;2022-08-03T10:14:39;29.60;51.90
26262;DHT22;13988;52.446;13.280;2022-08-03T10:17:06;29.70;52.40
26262;DHT22;13988;52.446;13.280;2022-08-03T10:19:33;29.50;51.90
26262;DHT22;13988;52.446;13.280;2022-08-03T10:22:06;29.60;52.20
26262;DHT22;13988;52.446;13.280;2022-08-03T10:24:34;29.80;53.00
26262;DHT22;13988;52.446;13.280;2022-08-03T10:27:05;29.90;53.40
26262;DHT22;13988;52.446;13.280;2022-08-03T10:29:36;30.40;52.20
26262;DHT22;13988;52.446;13.280;2022-08-03T10:32:07;30.00;51.30
26262;DHT22;13988;52.446;13.280;2022-08-03T10:34:38;30.20;52.60
26262;DHT22;13988;52.446;13.280;2022-08-03T10:37:09;30.20;53.70
26262;DHT22;13988;52.446;13.280;2022-08-03T10:39:36;30.00;51.80
26262;DHT22;13988;52.446;13.280;2022-08-03T10:42:02;30.20;52.10
26262;DHT22;13988;52.446;13.280;2022-08-03T10:44:37;30.10;51.80
26262;DHT22;13988;52.446;13.280;2022-08-03T10:47:04;29.90;52.40
26262;DHT22;13988;52.446;13.280;2022-08-03T10:49:31;29.80;52.30
26262;DHT22;13988;52.446;13.280;2022-08-03T10:51:57;30.00;52.20
26262;DHT22;13988;52.446;13.280;2022-08-03T10:54:43;30.20;51.30
26262;DHT22;13988;52.446;13.280;2022-08-03T11:00:50;30.40;50.90
26262;DHT22;13988;52.446;13.280;2022-08-03T11:03:16;30.50;50.20
26262;DHT22;13988;52.446;13.280;2022-08-03T11:05:45;30.80;51.20
26262;DHT22;13988;52.446;13.280;2022-08-03T11:08:29;31.00;51.50
26262;DHT22;13988;52.446;13.280;2022-08-03T11:11:46;31.20;50.50
26262;DHT22;13988;52.446;13.280;2022-08-03T11:17:06;31.20;51.00
26262;DHT22;13988;52.446;13.280;2022-08-03T11:19:46;31.00;50.50
26262;DHT22;13988;52.446;13.280;2022-08-03T11:22:13;31.70;49.90
26262;DHT22;13988;52.446;13.280;2022-08-03T11:27:15;32.30;48.30
26262;DHT22;13988;52.446;13.280;2022-08-03T11:30:08;31.90;47.90
26262;DHT22;13988;52.446;13.280;2022-08-03T11:35:10;31.10;49.60
26262;DHT22;13988;52.446;13.280;2022-08-03T11:46:08;34.10;46.30
26262;DHT22;13988;52.446;13.280;2022-08-03T11:48:49;34.70;46.80
26262;DHT22;13988;52.446;13.280;2022-08-03T11:51:26;34.30;45.30
26262;DHT22;13988;52.446;13.280;2022-08-03T11:53:59;34.10;45.30
26262;DHT22;13988;52.446;13.280;2022-08-03T11:56:26;33.60;46.60
26262;DHT22;13988;52.446;13.280;2022-08-03T11:58:54;32.50;46.30
26262;DHT22;13988;52.446;13.280;2022-08-03T12:04:02;32.70;49.50
26262;DHT22;13988;52.446;13.280;2022-08-03T12:06:29;32.60;46.70
26262;DHT22;13988;52.446;13.280;2022-08-03T12:08:55;32.20;46.70
26262;DHT22;13988;52.446;13.280;2022-08-03T12:11:41;31.90;48.60
26262;DHT22;13988;52.446;13.280;2022-08-03T12:14:07;31.90;47.70
26262;DHT22;13988;52.446;13.280;2022-08-03T12:16:32;32.10;47.00
26262;DHT22;13988;52.446;13.280;2022-08-03T12:19:00;32.80;48.40
26262;DHT22;13988;52.446;13.280;2022-08-03T12:21:27;32.50;46.40
26262;DHT22;13988;52.446;13.280;2022-08-03T12:23:58;34.20;47.50
26262;DHT22;13988;52.446;13.280;2022-08-03T12:26:25;35.20;44.10
26262;DHT22;13988;52.446;13.280;2022-08-03T12:28:51;34.30;45.90
26262;DHT22;13988;52.446;13.280;2022-08-03T12:31:17;34.40;46.20
26262;DHT22;13988;52.446;13.280;2022-08-03T12:36:22;32.90;45.50
26262;DHT22;13988;52.446;13.280;2022-08-03T12:38:55;32.30;47.00
26262;DHT22;13988;52.446;13.280;2022-08-03T12:41:30;33.40;47.00
26262;DHT22;13988;52.446;13.280;2022-08-03T12:43:56;34.60;44.90
26262;DHT22;13988;52.446;13.280;2022-08-03T12:46:22;35.10;44.00
26262;DHT22;13988;52.446;13.280;2022-08-03T12:49:14;34.80;44.30
26262;DHT22;13988;52.446;13.280;2022-08-03T12:54:07;34.40;46.00
26262;DHT22;13988;52.446;13.280;2022-08-03T12:56:33;34.90;45.20
26262;DHT22;13988;52.446;13.280;2022-08-03T12:59:00;34.50;43.70
26262;DHT22;13988;52.446;13.280;2022-08-03T13:01:26;33.40;45.90
26262;DHT22;13988;52.446;13.280;2022-08-03T13:04:00;34.20;45.90
26262;DHT22;13988;52.446;13.280;2022-08-03T13:06:35;34.90;44.40
26262;DHT22;13988;52.446;13.280;2022-08-03T13:09:05;35.20;44.10
26262;DHT22;13988;52.446;13.280;2022-08-03T13:11:31;35.20;43.70
26262;DHT22;13988;52.446;13.280;2022-08-03T13:13:57;35.70;43.00
26262;DHT22;13988;52.446;13.280;2022-08-03T13:16:23;35.90;42.90
26262;DHT22;13988;52.446;13.280;2022-08-03T13:18:49;33.10;44.80
26262;DHT22;13988;52.446;13.280;2022-08-03T13:21:17;33.00;46.10
26262;DHT22;13988;52.446;13.280;2022-08-03T13:23:43;33.80;45.90
26262;DHT22;13988;52.446;13.280;2022-08-03T13:26:09;34.80;43.60
26262;DHT22;13988;52.446;13.280;2022-08-03T13:28:36;34.40;44.60
26262;DHT22;13988;52.446;13.280;2022-08-03T13:31:02;33.70;47.10
26262;DHT22;13988;52.446;13.280;2022-08-03T13:33:28;34.00;46.70
26262;DHT22;13988;52.446;13.280;2022-08-03T13:35:54;34.30;46.60
26262;DHT22;13988;52.446;13.280;2022-08-03T13:38:20;35.20;45.10
26262;DHT22;13988;52.446;13.280;2022-08-03T13:40:45;35.50;43.90
26262;DHT22;13988;52.446;13.280;2022-08-03T13:43:11;34.30;43.80
26262;DHT22;13988;52.446;13.280;2022-08-03T13:45:37;33.90;46.50
26262;DHT22;13988;52.446;13.280;2022-08-03T13:48:03;34.90;44.00
26262;DHT22;13988;52.446;13.280;2022-08-03T13:50:29;34.00;45.00
26262;DHT22;13988;52.446;13.280;2022-08-03T13:52:58;34.60;44.30
26262;DHT22;13988;52.446;13.280;2022-08-03T13:55:24;35.30;44.30
26262;DHT22;13988;52.446;13.280;2022-08-03T13:57:49;35.10;45.50
26262;DHT22;13988;52.446;13.280;2022-08-03T14:00:16;35.00;45.20
26262;DHT22;13988;52.446;13.280;2022-08-03T14:02:42;35.90;44.40
26262;DHT22;13988;52.446;13.280;2022-08-03T14:05:08;36.20;43.80
26262;DHT22;13988;52.446;13.280;2022-08-03T14:07:33;34.20;43.80
26262;DHT22;13988;52.446;13.280;2022-08-03T14:09:59;35.40;43.40
26262;DHT22;13988;52.446;13.280;2022-08-03T14:12:26;35.20;43.60
26262;DHT22;13988;52.446;13.280;2022-08-03T14:14:52;35.50;43.00
26262;DHT22;13988;52.446;13.280;2022-08-03T14:17:18;35.20;43.50
26262;DHT22;13988;52.446;13.280;2022-08-03T14:19:44;35.70;43.40
26262;DHT22;13988;52.446;13.280;2022-08-03T14:22:09;34.20;43.80
26262;DHT22;13988;52.446;13.280;2022-08-03T14:24:35;35.20;44.50
26262;DHT22;13988;52.446;13.280;2022-08-03T14:27:01;35.30;45.40
26262;DHT22;13988;52.446;13.280;2022-08-03T14:29:26;34.90;44.40
26262;DHT22;13988;52.446;13.280;2022-08-03T14:31:52;34.40;45.40
26262;DHT22;13988;52.446;13.280;2022-08-03T14:34:18;34.40;45.40
26262;DHT22;13988;52.446;13.280;2022-08-03T14:36:44;35.20;44.90
26262;DHT22;13988;52.446;13.280;2022-08-03T14:39:12;34.80;44.40
26262;DHT22;13988;52.446;13.280;2022-08-03T14:41:37;33.70;44.90
26262;DHT22;13988;52.446;13.280;2022-08-03T14:44:03;33.20;45.80
26262;DHT22;13988;52.446;13.280;2022-08-03T14:46:30;33.50;46.30
26262;DHT22;13988;52.446;13.280;2022-08-03T14:48:56;33.50;45.20
26262;DHT22;13988;52.446;13.280;2022-08-03T14:51:23;33.40;45.80
26262;DHT22;13988;52.446;13.280;2022-08-03T14:53:48;33.20;46.30
26262;DHT22;13988;52.446;13.280;2022-08-03T14:56:14;33.20;46.10
26262;DHT22;13988;52.446;13.280;2022-08-03T14:58:39;33.50;45.90
26262;DHT22;13988;52.446;13.280;2022-08-03T15:01:05;33.70;45.90
26262;DHT22;13988;52.446;13.280;2022-08-03T15:03:32;33.20;47.20
26262;DHT22;13988;52.446;13.280;2022-08-03T15:06:03;34.30;45.80
26262;DHT22;13988;52.446;13.280;2022-08-03T15:08:29;34.60;45.20
26262;DHT22;13988;52.446;13.280;2022-08-03T15:10:55;34.70;45.00
26262;DHT22;13988;52.446;13.280;2022-08-03T15:13:21;35.00;45.10
26262;DHT22;13988;52.446;13.280;2022-08-03T15:15:47;34.00;45.80
26262;DHT22;13988;52.446;13.280;2022-08-03T15:18:14;34.20;45.40
26262;DHT22;13988;52.446;13.280;2022-08-03T15:20:39;33.40;46.00
26262;DHT22;13988;52.446;13.280;2022-08-03T15:23:24;34.00;45.60
26262;DHT22;13988;52.446;13.280;2022-08-03T15:25:51;34.20;45.70
26262;DHT22;13988;52.446;13.280;2022-08-03T15:28:17;34.50;45.20
26262;DHT22;13988;52.446;13.280;2022-08-03T15:30:42;33.90;45.60
26262;DHT22;13988;52.446;13.280;2022-08-03T15:33:08;33.80;45.40
26262;DHT22;13988;52.446;13.280;2022-08-03T15:35:34;33.80;45.40
26262;DHT22;13988;52.446;13.280;2022-08-03T15:37:59;32.60;46.80
26262;DHT22;13988;52.446;13.280;2022-08-03T15:40:25;32.30;48.50
26262;DHT22;13988;52.446;13.280;2022-08-03T15:42:51;32.70;49.10
26262;DHT22;13988;52.446;13.280;2022-08-03T15:45:16;32.80;48.80
26262;DHT22;13988;52.446;13.280;2022-08-03T15:47:42;32.70;48.00
26262;DHT22;13988;52.446;13.280;2022-08-03T15:50:07;32.60;47.40
26262;DHT22;13988;52.446;13.280;2022-08-03T15:52:33;32.80;48.50
26262;DHT22;13988;52.446;13.280;2022-08-03T15:54:59;32.70;48.10
26262;DHT22;13988;52.446;13.280;2022-08-03T15:57:25;33.00;48.60
26262;DHT22;13988;52.446;13.280;2022-08-03T15:59:50;33.10;48.20
26262;DHT22;13988;52.446;13.280;2022-08-03T16:02:16;32.80;47.80
26262;DHT22;13988;52.446;13.280;2022-08-03T16:04:42;33.00;48.60
26262;DHT22;13988;52.446;13.280;2022-08-03T16:07:07;33.00;46.90
26262;DHT22;13988;52.446;13.280;2022-08-03T16:09:33;33.20;47.70